This is the latest recevied weather packets stored in our database for station/object N2OCK. If no packets are shown the sender has not sent any weather packets the latest 10 day(s).
| Time | Temp. | Humidity | Pressure | Rain* | Wind** | Luminosity | Snow |
|---|---|---|---|---|---|---|---|
| 1777927261 | 17.78° C | 56% | 1010.7 hPa | 0 mm | - | 396 W/m² | - |
| 1777926959 | 17.78° C | 55% | 1010.8 hPa | 0 mm | - | 410 W/m² | - |
| 1777926656 | 17.78° C | 56% | 1010.6 hPa | 0 mm | - | 424 W/m² | - |
| 1777926351 | 18.33° C | 54% | 1010.7 hPa | 0 mm | - | 436 W/m² | - |
| 1777926048 | 18.33° C | 55% | 1010.8 hPa | 0 mm | - | 451 W/m² | - |
| 1777925745 | 18.89° C | 53% | 1010.9 hPa | 0 mm | - | 462 W/m² | - |
| 1777925443 | 18.33° C | 54% | 1010.8 hPa | 0 mm | - | 475 W/m² | - |
| 1777925139 | 18.89° C | 53% | 1010.9 hPa | 0 mm | - | 489 W/m² | - |
| 1777924836 | 19.44° C | 51% | 1010.9 hPa | 0 mm | - | 497 W/m² | - |
| 1777924532 | 18.89° C | 53% | 1010.8 hPa | 0 mm | - | 510 W/m² | - |
| 1777924229 | 18.33° C | 53% | 1010.9 hPa | 0 mm | - | 524 W/m² | - |
| 1777923925 | 18.89° C | 51% | 1011 hPa | 0 mm | - | 533 W/m² | - |
| 1777923620 | 18.89° C | 51% | 1010.9 hPa | 0 mm | - | 546 W/m² | - |
| 1777923318 | 18.89° C | 52% | 1011.2 hPa | 0 mm | - | 554 W/m² | - |
| 1777923016 | 19.44° C | 50% | 1011.1 hPa | 0 mm | - | 563 W/m² | - |
| 1777922714 | 19.44° C | 50% | 1011 hPa | 0 mm | - | 573 W/m² | - |
| 1777922412 | 20° C | 46% | 1011 hPa | 0 mm | - | 582 W/m² | - |
| 1777922110 | 19.44° C | 48% | 1011.1 hPa | 0 mm | - | 592 W/m² | - |
| 1777921805 | 19.44° C | 49% | 1011 hPa | 0 mm | - | 598 W/m² | - |
| 1777921501 | 19.44° C | 47% | 1011 hPa | 0 mm | - | 612 W/m² | - |
| 1777921198 | 18.89° C | 49% | 1011.2 hPa | 0 mm | - | 622 W/m² | - |
| 1777920895 | 19.44° C | 47% | 1011.2 hPa | 0 mm | - | 634 W/m² | - |
| 1777920591 | 20° C | 47% | 1011.2 hPa | 0 mm | - | 639 W/m² | - |
| 1777920287 | 19.44° C | 46% | 1011.3 hPa | 0 mm | - | 646 W/m² | - |
| 1777919983 | 20° C | 42% | 1011.4 hPa | 0 mm | - | 654 W/m² | - |
* Rain latest hour (hover to see other rain measurements)
** Current wind speed in m/s (hover to see current wind gust speed)